sensor_id;sensor_type;location;lat;lon;timestamp;temperature;humidity
70051;SHT30;57391;51.306;22.680;2024-01-10T00:01:48;-8.57;60.04
70051;SHT30;57391;51.306;22.680;2024-01-10T00:03:50;-8.56;60.01
70051;SHT30;57391;51.306;22.680;2024-01-10T00:05:52;-8.56;60.09
70051;SHT30;57391;51.306;22.680;2024-01-10T00:07:54;-8.53;60.10
70051;SHT30;57391;51.306;22.680;2024-01-10T00:09:56;-8.50;60.06
70051;SHT30;57391;51.306;22.680;2024-01-10T00:11:59;-8.49;60.01
70051;SHT30;57391;51.306;22.680;2024-01-10T00:14:00;-8.50;59.96
70051;SHT30;57391;51.306;22.680;2024-01-10T00:16:04;-8.52;59.99
70051;SHT30;57391;51.306;22.680;2024-01-10T00:18:07;-8.51;60.13
70051;SHT30;57391;51.306;22.680;2024-01-10T00:20:08;-8.48;60.06
70051;SHT30;57391;51.306;22.680;2024-01-10T00:22:10;-8.47;60.06
70051;SHT30;57391;51.306;22.680;2024-01-10T00:24:12;-8.45;59.96
70051;SHT30;57391;51.306;22.680;2024-01-10T00:26:14;-8.48;59.89
70051;SHT30;57391;51.306;22.680;2024-01-10T00:28:16;-8.49;59.90
70051;SHT30;57391;51.306;22.680;2024-01-10T00:30:19;-8.51;59.91
70051;SHT30;57391;51.306;22.680;2024-01-10T00:32:21;-8.54;59.97
70051;SHT30;57391;51.306;22.680;2024-01-10T00:34:23;-8.56;60.08
70051;SHT30;57391;51.306;22.680;2024-01-10T00:36:25;-8.57;60.11
70051;SHT30;57391;51.306;22.680;2024-01-10T00:38:27;-8.58;60.25
70051;SHT30;57391;51.306;22.680;2024-01-10T00:40:29;-8.59;60.38
70051;SHT30;57391;51.306;22.680;2024-01-10T00:42:30;-8.57;60.42
70051;SHT30;57391;51.306;22.680;2024-01-10T00:44:32;-8.53;60.47
70051;SHT30;57391;51.306;22.680;2024-01-10T00:46:34;-8.48;60.50
70051;SHT30;57391;51.306;22.680;2024-01-10T00:48:35;-8.45;60.47
70051;SHT30;57391;51.306;22.680;2024-01-10T00:50:37;-8.44;60.50
70051;SHT30;57391;51.306;22.680;2024-01-10T00:52:39;-8.39;60.59
70051;SHT30;57391;51.306;22.680;2024-01-10T00:54:40;-8.37;60.58
70051;SHT30;57391;51.306;22.680;2024-01-10T00:56:42;-8.33;60.50
70051;SHT30;57391;51.306;22.680;2024-01-10T00:58:44;-8.31;60.50
70051;SHT30;57391;51.306;22.680;2024-01-10T01:00:46;-8.26;60.47
70051;SHT30;57391;51.306;22.680;2024-01-10T01:02:47;-8.23;60.38
70051;SHT30;57391;51.306;22.680;2024-01-10T01:04:49;-8.19;60.45
70051;SHT30;57391;51.306;22.680;2024-01-10T01:06:51;-8.12;60.46
70051;SHT30;57391;51.306;22.680;2024-01-10T01:08:52;-8.05;60.42
70051;SHT30;57391;51.306;22.680;2024-01-10T01:10:54;-7.99;60.29
70051;SHT30;57391;51.306;22.680;2024-01-10T01:12:56;-7.95;60.16
70051;SHT30;57391;51.306;22.680;2024-01-10T01:14:57;-7.91;60.00
70051;SHT30;57391;51.306;22.680;2024-01-10T01:16:59;-7.90;59.90
70051;SHT30;57391;51.306;22.680;2024-01-10T01:19:01;-7.93;59.70
70051;SHT30;57391;51.306;22.680;2024-01-10T01:21:03;-7.94;59.65
70051;SHT30;57391;51.306;22.680;2024-01-10T01:23:04;-7.99;59.49
70051;SHT30;57391;51.306;22.680;2024-01-10T01:25:06;-8.08;59.42
70051;SHT30;57391;51.306;22.680;2024-01-10T01:27:09;-8.16;59.51
70051;SHT30;57391;51.306;22.680;2024-01-10T01:29:10;-8.22;59.69
70051;SHT30;57391;51.306;22.680;2024-01-10T01:31:12;-8.26;59.78
70051;SHT30;57391;51.306;22.680;2024-01-10T01:33:14;-8.31;59.91
70051;SHT30;57391;51.306;22.680;2024-01-10T01:35:16;-8.35;60.03
70051;SHT30;57391;51.306;22.680;2024-01-10T01:37:22;-8.38;60.10
70051;SHT30;57391;51.306;22.680;2024-01-10T01:39:24;-8.41;60.19
70051;SHT30;57391;51.306;22.680;2024-01-10T01:41:26;-8.44;60.30
70051;SHT30;57391;51.306;22.680;2024-01-10T01:43:27;-8.47;60.41
70051;SHT30;57391;51.306;22.680;2024-01-10T01:45:29;-8.49;60.50
70051;SHT30;57391;51.306;22.680;2024-01-10T01:47:31;-8.52;60.60
70051;SHT30;57391;51.306;22.680;2024-01-10T01:49:33;-8.52;60.63
70051;SHT30;57391;51.306;22.680;2024-01-10T01:51:35;-8.54;60.61
70051;SHT30;57391;51.306;22.680;2024-01-10T01:53:38;-8.54;60.83
70051;SHT30;57391;51.306;22.680;2024-01-10T01:55:42;-8.53;60.88
70051;SHT30;57391;51.306;22.680;2024-01-10T01:57:45;-8.52;60.84
70051;SHT30;57391;51.306;22.680;2024-01-10T01:59:47;-8.51;60.81
70051;SHT30;57391;51.306;22.680;2024-01-10T02:01:50;-8.50;60.80
70051;SHT30;57391;51.306;22.680;2024-01-10T02:03:55;-8.50;60.81
70051;SHT30;57391;51.306;22.680;2024-01-10T02:05:58;-8.50;60.74
70051;SHT30;57391;51.306;22.680;2024-01-10T02:08:00;-8.49;60.81
70051;SHT30;57391;51.306;22.680;2024-01-10T02:10:02;-8.48;60.80
70051;SHT30;57391;51.306;22.680;2024-01-10T02:12:04;-8.46;60.80
70051;SHT30;57391;51.306;22.680;2024-01-10T02:14:07;-8.44;60.79
70051;SHT30;57391;51.306;22.680;2024-01-10T02:16:08;-8.43;60.67
70051;SHT30;57391;51.306;22.680;2024-01-10T02:18:11;-8.43;60.69
70051;SHT30;57391;51.306;22.680;2024-01-10T02:20:15;-8.44;60.74
70051;SHT30;57391;51.306;22.680;2024-01-10T02:22:22;-8.43;60.84
70051;SHT30;57391;51.306;22.680;2024-01-10T02:24:23;-8.42;60.84
70051;SHT30;57391;51.306;22.680;2024-01-10T02:26:25;-8.39;60.89
70051;SHT30;57391;51.306;22.680;2024-01-10T02:28:28;-8.39;60.80
70051;SHT30;57391;51.306;22.680;2024-01-10T02:30:30;-8.38;60.80
70051;SHT30;57391;51.306;22.680;2024-01-10T02:32:31;-8.40;60.71
70051;SHT30;57391;51.306;22.680;2024-01-10T02:34:33;-8.40;60.71
70051;SHT30;57391;51.306;22.680;2024-01-10T02:36:35;-8.44;60.66
70051;SHT30;57391;51.306;22.680;2024-01-10T02:38:37;-8.48;60.83
70051;SHT30;57391;51.306;22.680;2024-01-10T02:40:38;-8.49;60.94
70051;SHT30;57391;51.306;22.680;2024-01-10T02:42:40;-8.50;61.04
70051;SHT30;57391;51.306;22.680;2024-01-10T02:44:43;-8.48;61.09
70051;SHT30;57391;51.306;22.680;2024-01-10T02:46:45;-8.48;61.08
70051;SHT30;57391;51.306;22.680;2024-01-10T02:48:47;-8.51;61.08
70051;SHT30;57391;51.306;22.680;2024-01-10T02:50:48;-8.57;61.14
70051;SHT30;57391;51.306;22.680;2024-01-10T02:52:50;-8.61;61.28
70051;SHT30;57391;51.306;22.680;2024-01-10T02:54:52;-8.63;61.46
70051;SHT30;57391;51.306;22.680;2024-01-10T02:56:54;-8.60;61.55
70051;SHT30;57391;51.306;22.680;2024-01-10T02:58:56;-8.58;61.49
70051;SHT30;57391;51.306;22.680;2024-01-10T03:00:58;-8.56;61.51
70051;SHT30;57391;51.306;22.680;2024-01-10T03:03:00;-8.54;61.53
70051;SHT30;57391;51.306;22.680;2024-01-10T03:05:02;-8.55;61.34
70051;SHT30;57391;51.306;22.680;2024-01-10T03:07:04;-8.57;61.30
70051;SHT30;57391;51.306;22.680;2024-01-10T03:09:05;-8.57;61.29
70051;SHT30;57391;51.306;22.680;2024-01-10T03:11:07;-8.57;61.30
70051;SHT30;57391;51.306;22.680;2024-01-10T03:13:09;-8.56;61.24
70051;SHT30;57391;51.306;22.680;2024-01-10T03:15:11;-8.55;61.22
70051;SHT30;57391;51.306;22.680;2024-01-10T03:17:13;-8.52;61.25
70051;SHT30;57391;51.306;22.680;2024-01-10T03:19:15;-8.47;61.26
70051;SHT30;57391;51.306;22.680;2024-01-10T03:21:16;-8.42;61.33
70051;SHT30;57391;51.306;22.680;2024-01-10T03:23:24;-8.35;61.21
70051;SHT30;57391;51.306;22.680;2024-01-10T03:25:25;-8.30;61.01
70051;SHT30;57391;51.306;22.680;2024-01-10T03:27:27;-8.23;60.86
70051;SHT30;57391;51.306;22.680;2024-01-10T03:29:29;-8.18;60.63
70051;SHT30;57391;51.306;22.680;2024-01-10T03:31:31;-8.14;60.50
70051;SHT30;57391;51.306;22.680;2024-01-10T03:33:32;-8.10;60.29
70051;SHT30;57391;51.306;22.680;2024-01-10T03:35:34;-8.07;60.13
70051;SHT30;57391;51.306;22.680;2024-01-10T03:37:36;-8.01;59.88
70051;SHT30;57391;51.306;22.680;2024-01-10T03:39:38;-7.95;59.66
70051;SHT30;57391;51.306;22.680;2024-01-10T03:41:39;-7.92;59.46
70051;SHT30;57391;51.306;22.680;2024-01-10T03:43:41;-7.87;59.35
70051;SHT30;57391;51.306;22.680;2024-01-10T03:45:43;-7.84;59.38
70051;SHT30;57391;51.306;22.680;2024-01-10T03:47:45;-7.79;59.35
70051;SHT30;57391;51.306;22.680;2024-01-10T03:49:51;-7.73;59.39
70051;SHT30;57391;51.306;22.680;2024-01-10T03:51:52;-7.68;59.39
70051;SHT30;57391;51.306;22.680;2024-01-10T03:53:54;-7.66;59.40
70051;SHT30;57391;51.306;22.680;2024-01-10T03:55:56;-7.66;59.40
70051;SHT30;57391;51.306;22.680;2024-01-10T03:57:58;-7.63;59.51
70051;SHT30;57391;51.306;22.680;2024-01-10T04:00:00;-7.59;59.49
70051;SHT30;57391;51.306;22.680;2024-01-10T04:02:02;-7.56;59.40
70051;SHT30;57391;51.306;22.680;2024-01-10T04:04:05;-7.55;59.45
70051;SHT30;57391;51.306;22.680;2024-01-10T04:06:06;-7.53;59.49
70051;SHT30;57391;51.306;22.680;2024-01-10T04:08:08;-7.52;59.50
70051;SHT30;57391;51.306;22.680;2024-01-10T04:10:10;-7.51;59.42
70051;SHT30;57391;51.306;22.680;2024-01-10T04:12:15;-7.49;59.26
70051;SHT30;57391;51.306;22.680;2024-01-10T04:14:16;-7.48;59.29
70051;SHT30;57391;51.306;22.680;2024-01-10T04:16:18;-7.47;59.04
70051;SHT30;57391;51.306;22.680;2024-01-10T04:18:20;-7.48;58.94
70051;SHT30;57391;51.306;22.680;2024-01-10T04:20:22;-7.49;59.05
70051;SHT30;57391;51.306;22.680;2024-01-10T04:22:24;-7.53;58.92
70051;SHT30;57391;51.306;22.680;2024-01-10T04:24:26;-7.54;59.05
70051;SHT30;57391;51.306;22.680;2024-01-10T04:26:28;-7.54;59.04
70051;SHT30;57391;51.306;22.680;2024-01-10T04:28:29;-7.54;58.85
70051;SHT30;57391;51.306;22.680;2024-01-10T04:30:31;-7.53;58.90
70051;SHT30;57391;51.306;22.680;2024-01-10T04:32:33;-7.53;58.85
70051;SHT30;57391;51.306;22.680;2024-01-10T04:34:36;-7.53;58.72
70051;SHT30;57391;51.306;22.680;2024-01-10T04:36:38;-7.52;58.69
70051;SHT30;57391;51.306;22.680;2024-01-10T04:38:39;-7.53;58.53
70051;SHT30;57391;51.306;22.680;2024-01-10T04:40:41;-7.54;58.47
70051;SHT30;57391;51.306;22.680;2024-01-10T04:42:44;-7.55;58.58
70051;SHT30;57391;51.306;22.680;2024-01-10T04:44:46;-7.55;58.61
70051;SHT30;57391;51.306;22.680;2024-01-10T04:46:48;-7.55;58.59
70051;SHT30;57391;51.306;22.680;2024-01-10T04:48:49;-7.52;58.39
70051;SHT30;57391;51.306;22.680;2024-01-10T04:50:51;-7.50;58.34
70051;SHT30;57391;51.306;22.680;2024-01-10T04:52:53;-7.48;58.33
70051;SHT30;57391;51.306;22.680;2024-01-10T04:54:54;-7.49;58.19
70051;SHT30;57391;51.306;22.680;2024-01-10T04:56:56;-7.49;58.11
70051;SHT30;57391;51.306;22.680;2024-01-10T04:58:58;-7.49;57.96
70051;SHT30;57391;51.306;22.680;2024-01-10T05:01:00;-7.49;57.86
70051;SHT30;57391;51.306;22.680;2024-01-10T05:03:01;-7.48;58.03
70051;SHT30;57391;51.306;22.680;2024-01-10T05:05:03;-7.49;57.90
70051;SHT30;57391;51.306;22.680;2024-01-10T05:07:05;-7.48;57.83
70051;SHT30;57391;51.306;22.680;2024-01-10T05:09:07;-7.49;57.64
70051;SHT30;57391;51.306;22.680;2024-01-10T05:11:10;-7.51;57.70
70051;SHT30;57391;51.306;22.680;2024-01-10T05:13:13;-7.51;57.75
70051;SHT30;57391;51.306;22.680;2024-01-10T05:15:15;-7.51;57.49
70051;SHT30;57391;51.306;22.680;2024-01-10T05:17:17;-7.53;57.58
70051;SHT30;57391;51.306;22.680;2024-01-10T05:19:19;-7.53;57.59
70051;SHT30;57391;51.306;22.680;2024-01-10T05:21:20;-7.53;57.54
70051;SHT30;57391;51.306;22.680;2024-01-10T05:23:23;-7.55;57.63
70051;SHT30;57391;51.306;22.680;2024-01-10T05:25:25;-7.55;57.60
70051;SHT30;57391;51.306;22.680;2024-01-10T05:27:28;-7.56;57.56
70051;SHT30;57391;51.306;22.680;2024-01-10T05:29:30;-7.56;57.49
70051;SHT30;57391;51.306;22.680;2024-01-10T05:31:32;-7.57;57.59
70051;SHT30;57391;51.306;22.680;2024-01-10T05:33:34;-7.60;57.60
70051;SHT30;57391;51.306;22.680;2024-01-10T05:35:35;-7.61;57.55
70051;SHT30;57391;51.306;22.680;2024-01-10T05:37:39;-7.66;57.81
70051;SHT30;57391;51.306;22.680;2024-01-10T05:39:41;-7.67;57.88
70051;SHT30;57391;51.306;22.680;2024-01-10T05:41:43;-7.68;57.90
70051;SHT30;57391;51.306;22.680;2024-01-10T05:43:47;-7.71;58.11
70051;SHT30;57391;51.306;22.680;2024-01-10T05:45:49;-7.73;58.03
70051;SHT30;57391;51.306;22.680;2024-01-10T05:47:51;-7.75;58.10
70051;SHT30;57391;51.306;22.680;2024-01-10T05:49:53;-7.76;58.08
70051;SHT30;57391;51.306;22.680;2024-01-10T05:51:56;-7.78;58.20
70051;SHT30;57391;51.306;22.680;2024-01-10T05:53:57;-7.80;58.14
70051;SHT30;57391;51.306;22.680;2024-01-10T05:55:59;-7.82;58.30
70051;SHT30;57391;51.306;22.680;2024-01-10T05:58:02;-7.82;58.40
70051;SHT30;57391;51.306;22.680;2024-01-10T06:00:04;-7.82;58.33
70051;SHT30;57391;51.306;22.680;2024-01-10T06:02:10;-7.80;58.39
70051;SHT30;57391;51.306;22.680;2024-01-10T06:04:12;-7.79;58.49
70051;SHT30;57391;51.306;22.680;2024-01-10T06:06:14;-7.79;58.44
70051;SHT30;57391;51.306;22.680;2024-01-10T06:08:16;-7.76;58.36
70051;SHT30;57391;51.306;22.680;2024-01-10T06:10:17;-7.74;58.31
70051;SHT30;57391;51.306;22.680;2024-01-10T06:12:19;-7.72;58.33
70051;SHT30;57391;51.306;22.680;2024-01-10T06:14:21;-7.68;58.31
70051;SHT30;57391;51.306;22.680;2024-01-10T06:16:23;-7.67;58.30
70051;SHT30;57391;51.306;22.680;2024-01-10T06:18:24;-7.65;58.26
70051;SHT30;57391;51.306;22.680;2024-01-10T06:20:26;-7.63;58.29
70051;SHT30;57391;51.306;22.680;2024-01-10T06:22:29;-7.62;58.24
70051;SHT30;57391;51.306;22.680;2024-01-10T06:24:30;-7.64;58.29
70051;SHT30;57391;51.306;22.680;2024-01-10T06:26:32;-7.64;58.45
70051;SHT30;57391;51.306;22.680;2024-01-10T06:28:34;-7.63;58.55
70051;SHT30;57391;51.306;22.680;2024-01-10T06:30:36;-7.62;58.45
70051;SHT30;57391;51.306;22.680;2024-01-10T06:32:37;-7.62;58.53
70051;SHT30;57391;51.306;22.680;2024-01-10T06:34:42;-7.63;58.63
70051;SHT30;57391;51.306;22.680;2024-01-10T06:36:43;-7.64;58.70
70051;SHT30;57391;51.306;22.680;2024-01-10T06:38:45;-7.66;58.81
70051;SHT30;57391;51.306;22.680;2024-01-10T06:40:48;-7.66;58.88
70051;SHT30;57391;51.306;22.680;2024-01-10T06:42:50;-7.67;59.05
70051;SHT30;57391;51.306;22.680;2024-01-10T06:44:52;-7.64;59.03
70051;SHT30;57391;51.306;22.680;2024-01-10T06:46:54;-7.62;58.95
70051;SHT30;57391;51.306;22.680;2024-01-10T06:48:58;-7.61;58.83
70051;SHT30;57391;51.306;22.680;2024-01-10T06:51:00;-7.59;58.91
70051;SHT30;57391;51.306;22.680;2024-01-10T06:53:02;-7.57;59.00
70051;SHT30;57391;51.306;22.680;2024-01-10T06:55:04;-7.54;58.91
70051;SHT30;57391;51.306;22.680;2024-01-10T06:57:07;-7.49;58.89
70051;SHT30;57391;51.306;22.680;2024-01-10T06:59:08;-7.45;59.01
70051;SHT30;57391;51.306;22.680;2024-01-10T07:01:11;-7.43;58.95
70051;SHT30;57391;51.306;22.680;2024-01-10T07:03:14;-7.39;58.85
70051;SHT30;57391;51.306;22.680;2024-01-10T07:05:16;-7.37;58.85
70051;SHT30;57391;51.306;22.680;2024-01-10T07:07:17;-7.32;58.85
70051;SHT30;57391;51.306;22.680;2024-01-10T07:09:19;-7.22;58.86
70051;SHT30;57391;51.306;22.680;2024-01-10T07:11:21;-7.04;58.53
70051;SHT30;57391;51.306;22.680;2024-01-10T07:13:23;-6.85;58.16
70051;SHT30;57391;51.306;22.680;2024-01-10T07:15:25;-6.60;57.66
70051;SHT30;57391;51.306;22.680;2024-01-10T07:17:27;-6.40;57.30
70051;SHT30;57391;51.306;22.680;2024-01-10T07:19:29;-6.18;56.58
70051;SHT30;57391;51.306;22.680;2024-01-10T07:21:30;-5.97;56.47
70051;SHT30;57391;51.306;22.680;2024-01-10T07:23:32;-5.79;55.81
70051;SHT30;57391;51.306;22.680;2024-01-10T07:25:35;-5.57;55.46
70051;SHT30;57391;51.306;22.680;2024-01-10T07:27:38;-5.34;55.05
70051;SHT30;57391;51.306;22.680;2024-01-10T07:29:40;-5.12;54.65
70051;SHT30;57391;51.306;22.680;2024-01-10T07:31:42;-4.91;54.30
70051;SHT30;57391;51.306;22.680;2024-01-10T07:33:44;-4.74;53.59
70051;SHT30;57391;51.306;22.680;2024-01-10T07:35:46;-4.57;53.39
70051;SHT30;57391;51.306;22.680;2024-01-10T07:37:47;-4.38;53.01
70051;SHT30;57391;51.306;22.680;2024-01-10T07:39:49;-4.16;52.60
70051;SHT30;57391;51.306;22.680;2024-01-10T07:41:51;-3.96;52.24
70051;SHT30;57391;51.306;22.680;2024-01-10T07:43:53;-3.76;51.64
70051;SHT30;57391;51.306;22.680;2024-01-10T07:45:55;-3.61;51.29
70051;SHT30;57391;51.306;22.680;2024-01-10T07:47:57;-3.46;50.85
70051;SHT30;57391;51.306;22.680;2024-01-10T07:49:58;-3.35;50.61
70051;SHT30;57391;51.306;22.680;2024-01-10T07:52:00;-3.19;50.04
70051;SHT30;57391;51.306;22.680;2024-01-10T07:54:03;-3.03;49.71
70051;SHT30;57391;51.306;22.680;2024-01-10T07:56:05;-2.85;49.66
70051;SHT30;57391;51.306;22.680;2024-01-10T07:58:07;-2.67;49.01
70051;SHT30;57391;51.306;22.680;2024-01-10T08:00:08;-2.52;49.10
70051;SHT30;57391;51.306;22.680;2024-01-10T08:02:11;-2.37;48.34
70051;SHT30;57391;51.306;22.680;2024-01-10T08:04:13;-2.24;47.99
70051;SHT30;57391;51.306;22.680;2024-01-10T08:06:15;-2.16;47.86
70051;SHT30;57391;51.306;22.680;2024-01-10T08:08:17;-2.10;47.80
70051;SHT30;57391;51.306;22.680;2024-01-10T08:10:19;-2.03;47.69
70051;SHT30;57391;51.306;22.680;2024-01-10T08:12:21;-1.97;47.44
70051;SHT30;57391;51.306;22.680;2024-01-10T08:14:23;-1.89;46.76
70051;SHT30;57391;51.306;22.680;2024-01-10T08:16:25;-1.84;46.55
70051;SHT30;57391;51.306;22.680;2024-01-10T08:18:27;-1.78;46.39
70051;SHT30;57391;51.306;22.680;2024-01-10T08:20:29;-1.71;46.56
70051;SHT30;57391;51.306;22.680;2024-01-10T08:22:30;-1.64;46.78
70051;SHT30;57391;51.306;22.680;2024-01-10T08:24:32;-1.58;46.94
70051;SHT30;57391;51.306;22.680;2024-01-10T08:26:35;-1.49;46.95
70051;SHT30;57391;51.306;22.680;2024-01-10T08:28:37;-1.41;45.72
70051;SHT30;57391;51.306;22.680;2024-01-10T08:30:39;-1.41;45.10
70051;SHT30;57391;51.306;22.680;2024-01-10T08:32:41;-1.43;45.49
70051;SHT30;57391;51.306;22.680;2024-01-10T08:34:43;-1.49;45.36
70051;SHT30;57391;51.306;22.680;2024-01-10T08:36:46;-1.53;45.25
70051;SHT30;57391;51.306;22.680;2024-01-10T08:38:51;-1.60;45.28
70051;SHT30;57391;51.306;22.680;2024-01-10T08:40:53;-1.62;45.65
70051;SHT30;57391;51.306;22.680;2024-01-10T08:42:55;-1.59;46.09
70051;SHT30;57391;51.306;22.680;2024-01-10T08:44:56;-1.55;46.13
70051;SHT30;57391;51.306;22.680;2024-01-10T08:46:58;-1.50;46.14
70051;SHT30;57391;51.306;22.680;2024-01-10T08:49:00;-1.45;45.90
70051;SHT30;57391;51.306;22.680;2024-01-10T08:51:02;-1.38;46.04
70051;SHT30;57391;51.306;22.680;2024-01-10T08:53:04;-1.35;45.84
70051;SHT30;57391;51.306;22.680;2024-01-10T08:55:06;-1.31;45.96
70051;SHT30;57391;51.306;22.680;2024-01-10T08:57:09;-1.34;46.13
70051;SHT30;57391;51.306;22.680;2024-01-10T08:59:11;-1.38;45.86
70051;SHT30;57391;51.306;22.680;2024-01-10T09:01:13;-1.46;45.51
70051;SHT30;57391;51.306;22.680;2024-01-10T09:03:15;-1.54;46.09
70051;SHT30;57391;51.306;22.680;2024-01-10T09:05:17;-1.62;46.21
70051;SHT30;57391;51.306;22.680;2024-01-10T09:07:19;-1.70;46.22
70051;SHT30;57391;51.306;22.680;2024-01-10T09:09:22;-1.72;46.86
70051;SHT30;57391;51.306;22.680;2024-01-10T09:11:24;-1.74;47.00
70051;SHT30;57391;51.306;22.680;2024-01-10T09:13:26;-1.75;47.33
70051;SHT30;57391;51.306;22.680;2024-01-10T09:15:28;-1.75;47.54
70051;SHT30;57391;51.306;22.680;2024-01-10T09:17:30;-1.77;47.33
70051;SHT30;57391;51.306;22.680;2024-01-10T09:19:32;-1.74;47.53
70051;SHT30;57391;51.306;22.680;2024-01-10T09:21:33;-1.65;47.45
70051;SHT30;57391;51.306;22.680;2024-01-10T09:23:36;-1.61;47.53
70051;SHT30;57391;51.306;22.680;2024-01-10T09:25:38;-1.62;47.55
70051;SHT30;57391;51.306;22.680;2024-01-10T09:27:40;-1.55;47.83
70051;SHT30;57391;51.306;22.680;2024-01-10T09:29:44;-1.45;47.63
70051;SHT30;57391;51.306;22.680;2024-01-10T09:31:46;-1.37;47.29
70051;SHT30;57391;51.306;22.680;2024-01-10T09:33:48;-1.32;47.01
70051;SHT30;57391;51.306;22.680;2024-01-10T09:35:50;-1.31;46.38
70051;SHT30;57391;51.306;22.680;2024-01-10T09:37:52;-1.32;46.79
70051;SHT30;57391;51.306;22.680;2024-01-10T09:39:55;-1.32;47.01
70051;SHT30;57391;51.306;22.680;2024-01-10T09:41:56;-1.35;46.86
70051;SHT30;57391;51.306;22.680;2024-01-10T09:43:59;-1.33;47.17
70051;SHT30;57391;51.306;22.680;2024-01-10T09:46:01;-1.32;47.05
70051;SHT30;57391;51.306;22.680;2024-01-10T09:48:06;-1.30;47.25
70051;SHT30;57391;51.306;22.680;2024-01-10T09:50:08;-1.27;47.66
70051;SHT30;57391;51.306;22.680;2024-01-10T09:52:11;-1.21;47.29
70051;SHT30;57391;51.306;22.680;2024-01-10T09:54:25;-1.14;47.03
70051;SHT30;57391;51.306;22.680;2024-01-10T09:56:30;-1.11;47.08
70051;SHT30;57391;51.306;22.680;2024-01-10T09:58:33;-1.06;47.08
70051;SHT30;57391;51.306;22.680;2024-01-10T10:00:40;-1.08;47.58
70051;SHT30;57391;51.306;22.680;2024-01-10T10:02:42;-1.13;47.85
70051;SHT30;57391;51.306;22.680;2024-01-10T10:04:56;-1.12;47.42
70051;SHT30;57391;51.306;22.680;2024-01-10T10:07:09;-1.10;47.42
70051;SHT30;57391;51.306;22.680;2024-01-10T10:09:11;-1.03;47.20
70051;SHT30;57391;51.306;22.680;2024-01-10T10:11:14;-0.95;47.67
70051;SHT30;57391;51.306;22.680;2024-01-10T10:13:26;-0.90;47.15
70051;SHT30;57391;51.306;22.680;2024-01-10T10:15:30;-0.82;47.15
70051;SHT30;57391;51.306;22.680;2024-01-10T10:17:32;-0.74;47.22
70051;SHT30;57391;51.306;22.680;2024-01-10T10:19:33;-0.69;47.00
70051;SHT30;57391;51.306;22.680;2024-01-10T10:21:35;-0.68;47.04
70051;SHT30;57391;51.306;22.680;2024-01-10T10:23:40;-0.70;46.59
70051;SHT30;57391;51.306;22.680;2024-01-10T10:25:45;-0.76;45.83
70051;SHT30;57391;51.306;22.680;2024-01-10T10:27:50;-0.84;45.81
70051;SHT30;57391;51.306;22.680;2024-01-10T10:29:54;-0.91;46.22
70051;SHT30;57391;51.306;22.680;2024-01-10T10:31:55;-0.92;46.61
70051;SHT30;57391;51.306;22.680;2024-01-10T10:33:58;-0.87;47.00
70051;SHT30;57391;51.306;22.680;2024-01-10T10:36:03;-0.88;46.90
70051;SHT30;57391;51.306;22.680;2024-01-10T10:38:07;-0.87;46.72
70051;SHT30;57391;51.306;22.680;2024-01-10T10:40:12;-0.90;46.56
70051;SHT30;57391;51.306;22.680;2024-01-10T10:42:14;-0.92;47.00
70051;SHT30;57391;51.306;22.680;2024-01-10T10:44:18;-0.93;47.53
70051;SHT30;57391;51.306;22.680;2024-01-10T10:46:23;-0.92;47.30
70051;SHT30;57391;51.306;22.680;2024-01-10T10:48:29;-0.94;47.28
70051;SHT30;57391;51.306;22.680;2024-01-10T10:50:36;-0.95;47.29
70051;SHT30;57391;51.306;22.680;2024-01-10T10:52:38;-1.00;47.51
70051;SHT30;57391;51.306;22.680;2024-01-10T10:54:45;-1.02;48.09
70051;SHT30;57391;51.306;22.680;2024-01-10T10:56:49;-1.01;48.26
70051;SHT30;57391;51.306;22.680;2024-01-10T10:58:53;-0.99;48.30
70051;SHT30;57391;51.306;22.680;2024-01-10T11:00:56;-0.97;48.25
70051;SHT30;57391;51.306;22.680;2024-01-10T11:03:00;-0.96;48.33
70051;SHT30;57391;51.306;22.680;2024-01-10T11:05:05;-0.98;48.47
70051;SHT30;57391;51.306;22.680;2024-01-10T11:07:10;-1.01;48.59
70051;SHT30;57391;51.306;22.680;2024-01-10T11:09:12;-1.04;48.83
70051;SHT30;57391;51.306;22.680;2024-01-10T11:24:01;-0.98;49.26
70051;SHT30;57391;51.306;22.680;2024-01-10T11:26:04;-0.92;49.01
70051;SHT30;57391;51.306;22.680;2024-01-10T11:28:07;-0.90;48.46
70051;SHT30;57391;51.306;22.680;2024-01-10T11:30:10;-0.88;48.97
70051;SHT30;57391;51.306;22.680;2024-01-10T11:32:14;-0.84;49.17
70051;SHT30;57391;51.306;22.680;2024-01-10T11:34:22;-0.78;49.24
70051;SHT30;57391;51.306;22.680;2024-01-10T11:36:27;-0.73;49.24
70051;SHT30;57391;51.306;22.680;2024-01-10T11:38:30;-0.67;49.51
70051;SHT30;57391;51.306;22.680;2024-01-10T11:40:47;-0.60;49.31
70051;SHT30;57391;51.306;22.680;2024-01-10T11:42:52;-0.56;49.08
70051;SHT30;57391;51.306;22.680;2024-01-10T11:44:54;-0.52;49.05
70051;SHT30;57391;51.306;22.680;2024-01-10T11:46:56;-0.49;49.11
70051;SHT30;57391;51.306;22.680;2024-01-10T11:48:59;-0.48;49.09
70051;SHT30;57391;51.306;22.680;2024-01-10T11:51:01;-0.49;49.19
70051;SHT30;57391;51.306;22.680;2024-01-10T11:53:04;-0.45;49.56
70051;SHT30;57391;51.306;22.680;2024-01-10T11:55:06;-0.40;49.55
70051;SHT30;57391;51.306;22.680;2024-01-10T11:57:13;-0.37;49.44
70051;SHT30;57391;51.306;22.680;2024-01-10T11:59:21;-0.34;49.10
70051;SHT30;57391;51.306;22.680;2024-01-10T12:01:23;-0.33;49.30
70051;SHT30;57391;51.306;22.680;2024-01-10T12:03:28;-0.29;49.46
70051;SHT30;57391;51.306;22.680;2024-01-10T12:05:32;-0.21;49.72
70051;SHT30;57391;51.306;22.680;2024-01-10T12:07:36;-0.16;49.58
70051;SHT30;57391;51.306;22.680;2024-01-10T12:09:38;-0.11;49.66
70051;SHT30;57391;51.306;22.680;2024-01-10T12:11:40;-0.04;49.53
70051;SHT30;57391;51.306;22.680;2024-01-10T12:13:43;0.03;49.50
70051;SHT30;57391;51.306;22.680;2024-01-10T12:15:45;0.13;49.26
70051;SHT30;57391;51.306;22.680;2024-01-10T12:17:47;0.21;49.05
70051;SHT30;57391;51.306;22.680;2024-01-10T12:19:48;0.28;48.92
70051;SHT30;57391;51.306;22.680;2024-01-10T12:21:50;0.31;48.66
70051;SHT30;57391;51.306;22.680;2024-01-10T12:23:53;0.38;48.84
70051;SHT30;57391;51.306;22.680;2024-01-10T12:25:55;0.42;48.54
70051;SHT30;57391;51.306;22.680;2024-01-10T12:28:02;0.47;47.66
70051;SHT30;57391;51.306;22.680;2024-01-10T12:30:05;0.44;47.76
70051;SHT30;57391;51.306;22.680;2024-01-10T12:32:08;0.49;47.90
70051;SHT30;57391;51.306;22.680;2024-01-10T12:34:10;0.53;47.50
70051;SHT30;57391;51.306;22.680;2024-01-10T12:36:12;0.57;47.54
70051;SHT30;57391;51.306;22.680;2024-01-10T12:38:14;0.67;47.51
70051;SHT30;57391;51.306;22.680;2024-01-10T12:40:18;0.74;47.54
70051;SHT30;57391;51.306;22.680;2024-01-10T12:42:20;0.81;47.45
70051;SHT30;57391;51.306;22.680;2024-01-10T12:44:26;0.85;47.01
70051;SHT30;57391;51.306;22.680;2024-01-10T12:46:31;0.88;46.69
70051;SHT30;57391;51.306;22.680;2024-01-10T12:48:34;0.88;46.50
70051;SHT30;57391;51.306;22.680;2024-01-10T12:50:39;0.87;46.44
70051;SHT30;57391;51.306;22.680;2024-01-10T12:52:40;0.86;46.45
70051;SHT30;57391;51.306;22.680;2024-01-10T12:54:44;0.85;46.36
70051;SHT30;57391;51.306;22.680;2024-01-10T12:56:46;0.82;45.83